Airfield :
LOGIN :

Register | Disclaimer

   EN    FR    IT 

 










Legend :    VFR   Marginal VFR   IFR   Intensive IFR   Very Intensive IFR
Visi :
Ceiling :
>= 8 km
>= 3000ft
5 to 8 km
1000 to 3000 ft
1500m to 5 km
500 to 1000 ft
800 to 1500m
200 to 500 ft
< 800m
< 200 ft
Symbols :   Thunderstorms  Fog  Heavy snow  Heavy precipitations  Wind > 20 kt
SIGMETs :     Misc.  Thunderstorms  Icing  Turbulence  Mountain Waves  Volcanic Ashes






- Airport Elevation : 37 ft


EHVL - Vlieland Heliport

CURRENT METAR :
  • 290401Z AUTO 21016KT 6000 SHRA FEW004 BKN006 OVC008 14/14 Q1005 BLACKYLO

EXPIRED METARs :
  • 290355Z AUTO 20014KT 9999 -RA FEW003 SCT005 BKN006 14/14 Q1005 RERA REDZ BLACKYLO
  • 290333Z AUTO 21015KT 3200 SHRA +DZ FEW003 BKN005 BKN006 14/14 Q1005 BLACKYLO
  • 290255Z AUTO 22018KT 9999 OVC005 14/13 Q1005 BLACKYLO
  • 290225Z AUTO 21016KT 9999 -DZ BKN006 BKN008 FEW015CB 14/13 Q1006 REDZ BLACKYLO
  • 290213Z AUTO 21017KT 9999 DZRA BKN006 BKN007 FEW015CB 14/13 Q1006 BLACKYLO
  • 290156Z AUTO 22019KT 9999 BKN007 OVC008 14/13 Q1006 BLACKGRN
  • 290147Z AUTO 22019KT 9999 SCT006 BKN007 OVC009 14/13 Q1006 BLACKYLO
  • 290125Z AUTO 21019KT 9999 OVC007 14/13 Q1007 REDZ BLACKGRN
  • 290055Z AUTO 22022KT 9999 -RADZ BKN007 OVC008 14/13 Q1007 BLACKGRN
  • 290025Z AUTO 22024KT 9999 DZ BKN007 OVC008 14/13 Q1007 BLACKGRN
  • 290011Z AUTO 22024KT 9999 BKN007 OVC008 15/14 Q1007 BLACKGRN
  • 282355Z AUTO 22022KT 9999 SCT006 OVC007 14/14 Q1007 BLACKYLO
  • 282335Z AUTO 22023KT 9999 BKN006 BKN008 OVC009 15/14 Q1008 BLACKYLO

Expired Forecast.



MET'MAP, your aeronautical weather chart ! - Copyright ORBIFLY December 2007 - Disclaimer

ORBIFLY MET'MAP TEAM :

Programming & Development : Alexandra Zaïnal
Original concept : Baudouin d'Aumeries
Technical & hardware support : Manuel Goepfert
Assistance : Marc-Olivier Méhu




SOURCES & CREDITS :

   NOAA